Sandy Bay Township, Maine
Current Conditions -  °F | °C
As of 3:07 PM on Sunday 23 Nov 2014 (Local Time) from CYSC Reporting Station
Light Rain Light Rain  
Wind Chill: 39°   Ceiling: 300
Heat Index: 39°   Visibility: 0.25mi
Dew Point: 39°   Wind: 2mph
Humidity: 100%   Direction: 150°SSE
Pressure: 30.06"   Gusts: NA
Location:  45.7142°N, 70.304°W
Report Text: CYSC 232007Z AUTO 15002KT 1/4SM -RA FG BKN003 OVC008 04/04 A3006 RMK SLP188
Loading
Personal Weather Stations






























Interactive Weather Map New forecast layout! Learn more

10-Day Weather Forecast

Advertisements
Track Severe Weather on mobile